sensor_id;sensor_type;location;lat;lon;timestamp;pressure;altitude;pressure_sealevel;temperature;humidity
18985;BME280;9626;52.552;13.436;2022-09-29T00:01:09;99388.06;;;8.26;100.00
18985;BME280;9626;52.552;13.436;2022-09-29T00:03:36;99384.72;;;8.21;100.00
18985;BME280;9626;52.552;13.436;2022-09-29T00:06:02;99387.53;;;8.15;100.00
18985;BME280;9626;52.552;13.436;2022-09-29T00:08:29;99392.91;;;8.11;100.00
18985;BME280;9626;52.552;13.436;2022-09-29T00:10:54;99387.53;;;8.15;100.00
18985;BME280;9626;52.552;13.436;2022-09-29T00:13:21;99395.00;;;8.28;100.00
18985;BME280;9626;52.552;13.436;2022-09-29T00:16:00;99396.16;;;8.20;100.00
18985;BME280;9626;52.552;13.436;2022-09-29T00:18:26;99398.47;;;8.31;100.00
18985;BME280;9626;52.552;13.436;2022-09-29T00:20:57;99401.72;;;8.10;100.00
18985;BME280;9626;52.552;13.436;2022-09-29T00:23:23;99403.03;;;7.95;100.00
18985;BME280;9626;52.552;13.436;2022-09-29T00:26:01;99400.44;;;7.94;100.00
18985;BME280;9626;52.552;13.436;2022-09-29T00:28:27;99404.06;;;7.90;100.00
18985;BME280;9626;52.552;13.436;2022-09-29T00:30:53;99401.53;;;7.87;100.00
18985;BME280;9626;52.552;13.436;2022-09-29T00:33:19;99391.00;;;7.85;100.00
18985;BME280;9626;52.552;13.436;2022-09-29T00:35:55;99394.63;;;7.83;100.00
18985;BME280;9626;52.552;13.436;2022-09-29T00:38:20;99399.06;;;7.81;100.00
18985;BME280;9626;52.552;13.436;2022-09-29T00:40:46;99392.16;;;7.76;100.00
18985;BME280;9626;52.552;13.436;2022-09-29T00:49:54;99394.06;;;7.71;100.00
18985;BME280;9626;52.552;13.436;2022-09-29T00:52:44;99399.25;;;7.74;100.00
18985;BME280;9626;52.552;13.436;2022-09-29T00:55:35;99408.06;;;7.73;100.00
18985;BME280;9626;52.552;13.436;2022-09-29T00:58:09;99398.44;;;7.72;100.00
18985;BME280;9626;52.552;13.436;2022-09-29T01:00:37;99404.69;;;7.68;100.00
18985;BME280;9626;52.552;13.436;2022-09-29T01:03:17;99400.28;;;7.69;100.00
18985;BME280;9626;52.552;13.436;2022-09-29T01:05:51;99406.31;;;7.72;100.00
18985;BME280;9626;52.552;13.436;2022-09-29T01:10:51;99400.09;;;7.75;100.00
18985;BME280;9626;52.552;13.436;2022-09-29T01:13:18;99405.34;;;7.76;100.00
18985;BME280;9626;52.552;13.436;2022-09-29T01:15:44;99404.47;;;7.76;100.00
18985;BME280;9626;52.552;13.436;2022-09-29T01:18:29;99408.06;;;7.73;100.00
18985;BME280;9626;52.552;13.436;2022-09-29T01:21:31;99413.44;;;7.70;100.00
18985;BME280;9626;52.552;13.436;2022-09-29T01:26:44;99420.34;;;7.74;100.00
18985;BME280;9626;52.552;13.436;2022-09-29T01:29:41;99429.09;;;7.75;100.00
18985;BME280;9626;52.552;13.436;2022-09-29T01:35:21;99427.50;;;7.69;100.00
18985;BME280;9626;52.552;13.436;2022-09-29T01:43:19;99429.25;;;7.69;100.00
18985;BME280;9626;52.552;13.436;2022-09-29T01:45:56;99429.31;;;7.67;100.00
18985;BME280;9626;52.552;13.436;2022-09-29T01:48:26;99432.78;;;7.69;100.00
18985;BME280;9626;52.552;13.436;2022-09-29T01:51:01;99441.47;;;7.71;100.00
18985;BME280;9626;52.552;13.436;2022-09-29T01:53:43;99432.78;;;7.69;100.00
18985;BME280;9626;52.552;13.436;2022-09-29T01:56:13;99432.94;;;7.63;100.00
18985;BME280;9626;52.552;13.436;2022-09-29T01:58:51;99437.38;;;7.61;100.00
18985;BME280;9626;52.552;13.436;2022-09-29T02:01:20;99432.94;;;7.63;100.00
18985;BME280;9626;52.552;13.436;2022-09-29T02:03:51;99439.13;;;7.60;100.00
18985;BME280;9626;52.552;13.436;2022-09-29T02:06:27;99443.56;;;7.60;100.00
18985;BME280;9626;52.552;13.436;2022-09-29T02:08:56;99444.47;;;7.59;100.00
18985;BME280;9626;52.552;13.436;2022-09-29T02:11:22;99443.56;;;7.60;100.00
18985;BME280;9626;52.552;13.436;2022-09-29T02:16:29;99442.81;;;7.55;100.00
18985;BME280;9626;52.552;13.436;2022-09-29T02:19:02;99446.28;;;7.57;100.00
18985;BME280;9626;52.552;13.436;2022-09-29T02:21:29;99447.94;;;7.61;100.00
18985;BME280;9626;52.552;13.436;2022-09-29T02:23:55;99447.94;;;7.61;100.00
18985;BME280;9626;52.552;13.436;2022-09-29T02:26:23;99445.34;;;7.59;100.00
18985;BME280;9626;52.552;13.436;2022-09-29T02:28:50;99450.53;;;7.63;100.00
18985;BME280;9626;52.552;13.436;2022-09-29T02:31:18;99446.16;;;7.61;100.00
18985;BME280;9626;52.552;13.436;2022-09-29T02:33:43;99449.63;;;7.62;100.00
18985;BME280;9626;52.552;13.436;2022-09-29T02:36:25;99452.22;;;7.65;100.00
18985;BME280;9626;52.552;13.436;2022-09-29T02:39:00;99447.94;;;7.61;100.00
18985;BME280;9626;52.552;13.436;2022-09-29T02:42:48;99453.97;;;7.65;100.00
18985;BME280;9626;52.552;13.436;2022-09-29T02:51:12;99455.50;;;7.73;100.00
18985;BME280;9626;52.552;13.436;2022-09-29T02:59:07;99456.19;;;7.80;100.00
18985;BME280;9626;52.552;13.436;2022-09-29T03:01:46;99463.16;;;7.83;100.00
18985;BME280;9626;52.552;13.436;2022-09-29T03:04:12;99466.59;;;7.85;100.00
18985;BME280;9626;52.552;13.436;2022-09-29T03:06:37;99469.13;;;7.88;100.00
18985;BME280;9626;52.552;13.436;2022-09-29T03:09:03;99464.81;;;7.85;100.00
18985;BME280;9626;52.552;13.436;2022-09-29T03:11:28;99469.97;;;7.90;100.00
18985;BME280;9626;52.552;13.436;2022-09-29T03:13:54;99470.78;;;7.92;100.00
18985;BME280;9626;52.552;13.436;2022-09-29T03:16:37;99474.25;;;7.94;100.00
18985;BME280;9626;52.552;13.436;2022-09-29T03:19:04;99468.25;;;7.89;100.00
18985;BME280;9626;52.552;13.436;2022-09-29T03:21:30;99464.81;;;7.85;100.00
18985;BME280;9626;52.552;13.436;2022-09-29T03:23:56;99464.78;;;7.87;100.00
18985;BME280;9626;52.552;13.436;2022-09-29T03:26:22;99469.31;;;7.82;100.00
18985;BME280;9626;52.552;13.436;2022-09-29T03:28:51;99472.75;;;7.84;100.00
18985;BME280;9626;52.552;13.436;2022-09-29T03:31:17;99471.06;;;7.83;100.00
18985;BME280;9626;52.552;13.436;2022-09-29T03:33:43;99471.91;;;7.83;100.00
18985;BME280;9626;52.552;13.436;2022-09-29T03:36:09;99470.06;;;7.85;100.00
18985;BME280;9626;52.552;13.436;2022-09-29T03:38:36;99466.50;;;7.88;100.00
18985;BME280;9626;52.552;13.436;2022-09-29T03:41:03;99473.59;;;7.86;100.00
18985;BME280;9626;52.552;13.436;2022-09-29T03:43:28;99474.50;;;7.85;100.00
18985;BME280;9626;52.552;13.436;2022-09-29T03:46:13;99476.97;;;7.91;100.00
18985;BME280;9626;52.552;13.436;2022-09-29T03:48:38;99480.41;;;7.93;100.00
18985;BME280;9626;52.552;13.436;2022-09-29T03:51:05;99477.03;;;7.88;100.00
18985;BME280;9626;52.552;13.436;2022-09-29T03:53:33;99478.81;;;7.87;100.00
18985;BME280;9626;52.552;13.436;2022-09-29T03:55:59;99487.59;;;7.88;100.00
18985;BME280;9626;52.552;13.436;2022-09-29T03:58:25;99495.44;;;7.91;100.00
18985;BME280;9626;52.552;13.436;2022-09-29T04:00:50;99491.16;;;7.87;100.00
18985;BME280;9626;52.552;13.436;2022-09-29T04:05:45;99489.28;;;7.90;100.00
18985;BME280;9626;52.552;13.436;2022-09-29T04:08:11;99498.75;;;7.98;100.00
18985;BME280;9626;52.552;13.436;2022-09-29T04:10:37;99491.72;;;7.98;100.00
18985;BME280;9626;52.552;13.436;2022-09-29T04:13:03;99497.88;;;7.97;100.00
18985;BME280;9626;52.552;13.436;2022-09-29T04:15:29;99490.88;;;7.96;100.00
18985;BME280;9626;52.552;13.436;2022-09-29T04:17:54;99499.66;;;7.97;100.00
18985;BME280;9626;52.552;13.436;2022-09-29T04:20:20;99493.44;;;7.99;100.00
18985;BME280;9626;52.552;13.436;2022-09-29T04:22:46;99500.41;;;8.00;100.00
18985;BME280;9626;52.552;13.436;2022-09-29T04:25:11;99503.91;;;8.02;100.00
18985;BME280;9626;52.552;13.436;2022-09-29T04:27:37;99505.69;;;8.00;100.00
18985;BME280;9626;52.552;13.436;2022-09-29T04:30:03;99510.84;;;8.05;100.00
18985;BME280;9626;52.552;13.436;2022-09-29T04:32:29;99513.59;;;8.00;100.00
18985;BME280;9626;52.552;13.436;2022-09-29T04:34:54;99514.53;;;7.99;100.00
18985;BME280;9626;52.552;13.436;2022-09-29T04:37:20;99511.06;;;7.97;100.00
18985;BME280;9626;52.552;13.436;2022-09-29T04:39:45;99514.59;;;7.96;100.00
18985;BME280;9626;52.552;13.436;2022-09-29T04:42:11;99509.41;;;7.93;100.00
18985;BME280;9626;52.552;13.436;2022-09-29T04:44:36;99514.53;;;7.99;100.00
18985;BME280;9626;52.552;13.436;2022-09-29T04:47:02;99513.59;;;8.00;100.00
18985;BME280;9626;52.552;13.436;2022-09-29T04:49:28;99517.97;;;8.01;100.00
18985;BME280;9626;52.552;13.436;2022-09-29T04:51:53;99521.34;;;8.06;100.00
18985;BME280;9626;52.552;13.436;2022-09-29T04:54:19;99524.00;;;8.06;100.00
18985;BME280;9626;52.552;13.436;2022-09-29T04:57:04;99523.09;;;8.07;100.00
18985;BME280;9626;52.552;13.436;2022-09-29T04:59:29;99530.81;;;8.13;100.00
18985;BME280;9626;52.552;13.436;2022-09-29T05:01:55;99526.38;;;8.16;100.00
18985;BME280;9626;52.552;13.436;2022-09-29T05:04:21;99524.69;;;8.13;100.00
18985;BME280;9626;52.552;13.436;2022-09-29T05:06:47;99527.38;;;8.11;100.00
18985;BME280;9626;52.552;13.436;2022-09-29T05:09:31;99529.91;;;8.15;100.00
18985;BME280;9626;52.552;13.436;2022-09-29T05:12:15;99538.78;;;8.12;100.00
18985;BME280;9626;52.552;13.436;2022-09-29T05:14:40;99536.19;;;8.10;100.00
18985;BME280;9626;52.552;13.436;2022-09-29T05:17:06;99536.09;;;8.13;100.00
18985;BME280;9626;52.552;13.436;2022-09-29T05:19:31;99541.50;;;8.09;100.00
18985;BME280;9626;52.552;13.436;2022-09-29T05:21:58;99539.97;;;8.00;100.00
18985;BME280;9626;52.552;13.436;2022-09-29T05:24:24;99544.34;;;8.01;100.00
18985;BME280;9626;52.552;13.436;2022-09-29T05:26:50;99537.97;;;8.08;100.00
18985;BME280;9626;52.552;13.436;2022-09-29T05:29:16;99543.00;;;8.18;100.00
18985;BME280;9626;52.552;13.436;2022-09-29T05:31:41;99542.00;;;8.22;100.00
18985;BME280;9626;52.552;13.436;2022-09-29T05:34:07;99545.53;;;8.22;100.00
18985;BME280;9626;52.552;13.436;2022-09-29T05:36:33;99555.88;;;8.28;100.00
18985;BME280;9626;52.552;13.436;2022-09-29T05:38:58;99546.06;;;8.34;100.00
18985;BME280;9626;52.552;13.436;2022-09-29T05:41:24;99546.25;;;8.27;100.00
18985;BME280;9626;52.552;13.436;2022-09-29T05:43:50;99545.56;;;8.21;100.00
18985;BME280;9626;52.552;13.436;2022-09-29T05:46:18;99545.38;;;8.27;100.00
18985;BME280;9626;52.552;13.436;2022-09-29T05:48:48;99551.59;;;8.24;100.00
18985;BME280;9626;52.552;13.436;2022-09-29T05:51:18;99540.38;;;8.18;100.00
18985;BME280;9626;52.552;13.436;2022-09-29T05:54:03;99546.56;;;8.17;100.00
18985;BME280;9626;52.552;13.436;2022-09-29T05:56:28;99545.63;;;8.18;100.00
18985;BME280;9626;52.552;13.436;2022-09-29T05:58:54;99550.75;;;8.24;100.00
18985;BME280;9626;52.552;13.436;2022-09-29T06:01:23;99544.44;;;8.29;100.00
18985;BME280;9626;52.552;13.436;2022-09-29T06:03:49;99548.84;;;8.29;100.00
18985;BME280;9626;52.552;13.436;2022-09-29T06:06:19;99547.22;;;8.25;100.00
18985;BME280;9626;52.552;13.436;2022-09-29T06:08:46;99550.56;;;8.30;100.00
18985;BME280;9626;52.552;13.436;2022-09-29T06:11:15;99557.31;;;8.40;100.00
18985;BME280;9626;52.552;13.436;2022-09-29T06:13:43;99557.47;;;8.36;100.00
18985;BME280;9626;52.552;13.436;2022-09-29T06:16:10;99554.94;;;8.31;100.00
18985;BME280;9626;52.552;13.436;2022-09-29T06:18:36;99565.50;;;8.31;100.00
18985;BME280;9626;52.552;13.436;2022-09-29T06:21:22;99559.06;;;8.41;100.00
18985;BME280;9626;52.552;13.436;2022-09-29T06:23:52;99555.25;;;8.52;100.00
18985;BME280;9626;52.552;13.436;2022-09-29T06:26:19;99558.00;;;8.49;100.00
18985;BME280;9626;52.552;13.436;2022-09-29T06:28:46;99566.81;;;8.48;100.00
18985;BME280;9626;52.552;13.436;2022-09-29T06:31:14;99563.06;;;8.55;100.00
18985;BME280;9626;52.552;13.436;2022-09-29T06:33:40;99571.69;;;8.61;100.00
18985;BME280;9626;52.552;13.436;2022-09-29T06:36:35;99565.19;;;8.73;100.00
18985;BME280;9626;52.552;13.436;2022-09-29T06:39:25;99562.28;;;8.83;100.00
18985;BME280;9626;52.552;13.436;2022-09-29T06:41:50;99558.78;;;8.82;100.00
18985;BME280;9626;52.552;13.436;2022-09-29T06:44:19;99560.50;;;8.83;100.00
18985;BME280;9626;52.552;13.436;2022-09-29T06:46:46;99560.44;;;8.85;100.00
18985;BME280;9626;52.552;13.436;2022-09-29T06:49:12;99562.91;;;8.91;100.00
18985;BME280;9626;52.552;13.436;2022-09-29T06:51:39;99559.44;;;8.89;100.00
18985;BME280;9626;52.552;13.436;2022-09-29T06:54:05;99567.44;;;8.86;100.00
18985;BME280;9626;52.552;13.436;2022-09-29T06:56:30;99568.09;;;8.94;100.00
18985;BME280;9626;52.552;13.436;2022-09-29T06:58:56;99571.50;;;8.98;100.00
18985;BME280;9626;52.552;13.436;2022-09-29T07:01:21;99574.94;;;9.00;100.00
18985;BME280;9626;52.552;13.436;2022-09-29T07:03:47;99575.81;;;9.00;100.00
18985;BME280;9626;52.552;13.436;2022-09-29T07:06:12;99573.13;;;9.02;100.00
18985;BME280;9626;52.552;13.436;2022-09-29T07:08:38;99581.00;;;9.03;100.00
18985;BME280;9626;52.552;13.436;2022-09-29T07:11:08;99577.34;;;9.07;100.00
18985;BME280;9626;52.552;13.436;2022-09-29T07:13:34;99578.09;;;9.12;100.00
18985;BME280;9626;52.552;13.436;2022-09-29T07:16:19;99579.22;;;9.04;100.00
18985;BME280;9626;52.552;13.436;2022-09-29T07:18:45;99580.16;;;9.01;100.00
18985;BME280;9626;52.552;13.436;2022-09-29T07:21:29;99580.97;;;9.05;100.00
18985;BME280;9626;52.552;13.436;2022-09-29T07:23:54;99588.81;;;9.06;100.00
18985;BME280;9626;52.552;13.436;2022-09-29T07:26:20;99585.28;;;9.07;100.00
18985;BME280;9626;52.552;13.436;2022-09-29T07:28:47;99581.72;;;9.08;100.00
18985;BME280;9626;52.552;13.436;2022-09-29T07:31:18;99591.94;;;8.91;100.00
18985;BME280;9626;52.552;13.436;2022-09-29T07:33:46;99601.66;;;8.89;100.00
18985;BME280;9626;52.552;13.436;2022-09-29T07:36:14;99597.06;;;8.95;100.00
18985;BME280;9626;52.552;13.436;2022-09-29T07:38:40;99604.13;;;8.95;100.00
18985;BME280;9626;52.552;13.436;2022-09-29T07:41:07;99607.00;;;8.87;100.00
18985;BME280;9626;52.552;13.436;2022-09-29T07:43:51;99615.88;;;8.85;100.00
18985;BME280;9626;52.552;13.436;2022-09-29T07:46:36;99614.06;;;8.87;100.00
18985;BME280;9626;52.552;13.436;2022-09-29T07:49:02;99606.19;;;8.85;100.00
18985;BME280;9626;52.552;13.436;2022-09-29T07:51:27;99618.28;;;8.92;100.00
18985;BME280;9626;52.552;13.436;2022-09-29T07:53:53;99614.59;;;8.98;100.00
18985;BME280;9626;52.552;13.436;2022-09-29T07:56:21;99625.91;;;9.03;100.00
18985;BME280;9626;52.552;13.436;2022-09-29T07:58:48;99613.59;;;9.02;100.00
18985;BME280;9626;52.552;13.436;2022-09-29T08:01:15;99626.16;;;8.94;100.00
18985;BME280;9626;52.552;13.436;2022-09-29T08:03:49;99630.66;;;8.92;100.00
18985;BME280;9626;52.552;13.436;2022-09-29T08:06:15;99627.91;;;8.95;100.00
18985;BME280;9626;52.552;13.436;2022-09-29T08:08:59;99626.94;;;8.98;100.00
18985;BME280;9626;52.552;13.436;2022-09-29T08:11:44;99637.72;;;8.90;100.00
18985;BME280;9626;52.552;13.436;2022-09-29T08:14:10;99631.31;;;8.99;100.00
18985;BME280;9626;52.552;13.436;2022-09-29T08:16:37;99629.44;;;9.02;100.00
18985;BME280;9626;52.552;13.436;2022-09-29T08:19:03;99635.59;;;9.03;100.00
18985;BME280;9626;52.552;13.436;2022-09-29T08:21:30;99642.47;;;9.08;100.00
18985;BME280;9626;52.552;13.436;2022-09-29T08:24:00;99650.25;;;9.13;100.00
18985;BME280;9626;52.552;13.436;2022-09-29T08:26:26;99649.13;;;9.20;100.00
18985;BME280;9626;52.552;13.436;2022-09-29T08:29:13;99645.53;;;9.23;100.00
18985;BME280;9626;52.552;13.436;2022-09-29T08:31:57;99648.38;;;9.17;100.00
18985;BME280;9626;52.552;13.436;2022-09-29T08:34:22;99649.88;;;9.25;100.00
18985;BME280;9626;52.552;13.436;2022-09-29T08:36:48;99646.16;;;9.31;100.00
18985;BME280;9626;52.552;13.436;2022-09-29T08:39:14;99642.34;;;9.41;100.00
18985;BME280;9626;52.552;13.436;2022-09-29T08:42:22;99654.25;;;9.55;100.00
18985;BME280;9626;52.552;13.436;2022-09-29T08:44:41;99656.63;;;9.62;100.00
18985;BME280;9626;52.552;13.436;2022-09-29T08:49:46;99660.16;;;9.63;100.00
18985;BME280;9626;52.552;13.436;2022-09-29T08:52:37;99663.47;;;9.70;100.00
18985;BME280;9626;52.552;13.436;2022-09-29T08:57:43;99663.19;;;9.79;100.00
18985;BME280;9626;52.552;13.436;2022-09-29T09:00:12;99667.47;;;9.81;100.00
18985;BME280;9626;52.552;13.436;2022-09-29T09:11:04;99665.97;;;10.26;100.00
18985;BME280;9626;52.552;13.436;2022-09-29T09:19:25;99676.16;;;10.39;100.00
18985;BME280;9626;52.552;13.436;2022-09-29T09:22:32;99670.63;;;10.46;100.00
18985;BME280;9626;52.552;13.436;2022-09-29T09:25:31;99673.84;;;10.55;100.00
18985;BME280;9626;52.552;13.436;2022-09-29T09:31:30;99673.66;;;10.61;100.00
18985;BME280;9626;52.552;13.436;2022-09-29T09:33:40;99673.19;;;10.73;100.00
18985;BME280;9626;52.552;13.436;2022-09-29T09:36:15;99674.91;;;10.74;100.00
18985;BME280;9626;52.552;13.436;2022-09-29T09:38:47;99690.78;;;10.74;100.00
18985;BME280;9626;52.552;13.436;2022-09-29T09:41:20;99689.19;;;10.70;100.00
18985;BME280;9626;52.552;13.436;2022-09-29T09:46:43;99687.94;;;10.80;100.00
18985;BME280;9626;52.552;13.436;2022-09-29T09:49:38;99685.69;;;10.93;100.00
18985;BME280;9626;52.552;13.436;2022-09-29T09:54:55;99691.56;;;11.25;100.00
18985;BME280;9626;52.552;13.436;2022-09-29T10:00:50;99686.31;;;11.47;100.00
18985;BME280;9626;52.552;13.436;2022-09-29T10:03:16;99691.25;;;11.57;100.00
18985;BME280;9626;52.552;13.436;2022-09-29T10:05:46;99690.50;;;11.53;100.00
18985;BME280;9626;52.552;13.436;2022-09-29T10:08:29;99689.38;;;11.59;100.00
18985;BME280;9626;52.552;13.436;2022-09-29T10:10:57;99699.63;;;11.68;100.00
18985;BME280;9626;52.552;13.436;2022-09-29T10:13:28;99702.22;;;11.92;100.00
18985;BME280;9626;52.552;13.436;2022-09-29T10:16:16;99702.72;;;11.79;100.00
18985;BME280;9626;52.552;13.436;2022-09-29T10:18:46;99701.16;;;11.74;100.00
18985;BME280;9626;52.552;13.436;2022-09-29T10:21:34;99695.56;;;11.59;100.00
18985;BME280;9626;52.552;13.436;2022-09-29T10:24:01;99706.47;;;11.52;100.00
18985;BME280;9626;52.552;13.436;2022-09-29T10:26:32;99708.63;;;11.64;100.00
18985;BME280;9626;52.552;13.436;2022-09-29T10:29:01;99706.72;;;11.67;100.00
18985;BME280;9626;52.552;13.436;2022-09-29T10:31:31;99712.72;;;11.73;100.00
18985;BME280;9626;52.552;13.436;2022-09-29T10:36:46;99718.50;;;11.60;100.00
18985;BME280;9626;52.552;13.436;2022-09-29T10:39:39;99708.75;;;11.83;100.00
18985;BME280;9626;52.552;13.436;2022-09-29T10:42:25;99705.63;;;11.95;100.00
18985;BME280;9626;52.552;13.436;2022-09-29T10:45:14;99710.31;;;12.11;100.00
18985;BME280;9626;52.552;13.436;2022-09-29T10:47:43;99716.66;;;12.29;100.00
18985;BME280;9626;52.552;13.436;2022-09-29T10:50:17;99715.13;;;12.44;100.00
18985;BME280;9626;52.552;13.436;2022-09-29T10:55:20;99720.09;;;12.51;100.00
18985;BME280;9626;52.552;13.436;2022-09-29T10:57:47;99726.38;;;12.50;100.00
18985;BME280;9626;52.552;13.436;2022-09-29T11:00:34;99712.56;;;12.63;100.00
18985;BME280;9626;52.552;13.436;2022-09-29T11:06:02;99716.03;;;12.22;100.00
18985;BME280;9626;52.552;13.436;2022-09-29T11:08:31;99716.25;;;12.17;100.00
18985;BME280;9626;52.552;13.436;2022-09-29T11:11:05;99722.03;;;12.05;100.00
18985;BME280;9626;52.552;13.436;2022-09-29T11:13:39;99718.47;;;12.06;100.00
18985;BME280;9626;52.552;13.436;2022-09-29T11:16:34;99724.81;;;12.02;100.00
18985;BME280;9626;52.552;13.436;2022-09-29T11:19:13;99733.69;;;12.01;100.00
18985;BME280;9626;52.552;13.436;2022-09-29T11:22:16;99733.84;;;11.98;100.00
18985;BME280;9626;52.552;13.436;2022-09-29T11:24:58;99732.56;;;11.84;100.00
18985;BME280;9626;52.552;13.436;2022-09-29T11:30:18;99736.38;;;11.77;100.00
18985;BME280;9626;52.552;13.436;2022-09-29T11:33:25;99737.88;;;11.84;100.00
18985;BME280;9626;52.552;13.436;2022-09-29T11:36:19;99730.22;;;11.77;100.00
18985;BME280;9626;52.552;13.436;2022-09-29T11:43:51;99733.13;;;11.94;100.00
18985;BME280;9626;52.552;13.436;2022-09-29T11:46:36;99739.13;;;11.98;100.00
18985;BME280;9626;52.552;13.436;2022-09-29T11:49:40;99742.34;;;12.06;100.00
18985;BME280;9626;52.552;13.436;2022-09-29T11:52:21;99752.22;;;12.25;100.00
18985;BME280;9626;52.552;13.436;2022-09-29T12:00:55;99741.06;;;12.37;100.00
18985;BME280;9626;52.552;13.436;2022-09-29T12:03:51;99745.91;;;12.27;98.86
18985;BME280;9626;52.552;13.436;2022-09-29T12:09:55;99753.66;;;12.32;97.64
18985;BME280;9626;52.552;13.436;2022-09-29T12:17:14;99756.16;;;12.14;100.00
18985;BME280;9626;52.552;13.436;2022-09-29T12:19:44;99756.44;;;12.08;100.00
18985;BME280;9626;52.552;13.436;2022-09-29T12:22:15;99754.44;;;12.13;100.00
18985;BME280;9626;52.552;13.436;2022-09-29T12:25:03;99755.09;;;12.18;100.00
18985;BME280;9626;52.552;13.436;2022-09-29T12:27:35;99752.22;;;12.25;99.90
18985;BME280;9626;52.552;13.436;2022-09-29T12:32:38;99751.94;;;12.31;99.93
18985;BME280;9626;52.552;13.436;2022-09-29T12:40:22;99743.28;;;12.48;96.17
18985;BME280;9626;52.552;13.436;2022-09-29T12:43:13;99748.13;;;12.38;97.35
18985;BME280;9626;52.552;13.436;2022-09-29T12:45:50;99751.69;;;12.37;97.69
18985;BME280;9626;52.552;13.436;2022-09-29T12:50:58;99744.28;;;12.45;92.40
18985;BME280;9626;52.552;13.436;2022-09-29T12:53:31;99746.84;;;12.47;91.60
18985;BME280;9626;52.552;13.436;2022-09-29T12:56:20;99750.56;;;12.43;93.97
18985;BME280;9626;52.552;13.436;2022-09-29T12:58:53;99749.72;;;12.42;96.95
18985;BME280;9626;52.552;13.436;2022-09-29T13:01:33;99757.09;;;12.56;95.99
18985;BME280;9626;52.552;13.436;2022-09-29T13:15:33;99754.38;;;12.78;91.18
18985;BME280;9626;52.552;13.436;2022-09-29T13:21:18;99759.13;;;12.91;90.77
18985;BME280;9626;52.552;13.436;2022-09-29T13:29:47;99762.19;;;12.81;90.33
18985;BME280;9626;52.552;13.436;2022-09-29T13:32:15;99763.84;;;12.84;92.04
18985;BME280;9626;52.552;13.436;2022-09-29T13:34:47;99761.09;;;12.87;92.44
18985;BME280;9626;52.552;13.436;2022-09-29T13:37:20;99769.09;;;12.85;88.72
18985;BME280;9626;52.552;13.436;2022-09-29T13:40:06;99776.28;;;12.83;88.39
18985;BME280;9626;52.552;13.436;2022-09-29T13:47:55;99768.84;;;12.71;86.15
18985;BME280;9626;52.552;13.436;2022-09-29T13:55:54;99782.66;;;12.79;81.86
18985;BME280;9626;52.552;13.436;2022-09-29T13:58:25;99780.16;;;12.76;81.86
18985;BME280;9626;52.552;13.436;2022-09-29T14:00:53;99783.72;;;12.75;80.27
18985;BME280;9626;52.552;13.436;2022-09-29T14:03:40;99777.28;;;12.81;81.76
18985;BME280;9626;52.552;13.436;2022-09-29T14:06:23;99782.72;;;12.78;82.96
18985;BME280;9626;52.552;13.436;2022-09-29T14:08:54;99795.13;;;12.77;81.20
18985;BME280;9626;52.552;13.436;2022-09-29T14:11:46;99789.28;;;12.69;80.59
18985;BME280;9626;52.552;13.436;2022-09-29T14:17:06;99796.34;;;12.70;78.93
18985;BME280;9626;52.552;13.436;2022-09-29T14:19:38;99800.97;;;12.65;80.26
18985;BME280;9626;52.552;13.436;2022-09-29T14:27:42;99804.56;;;12.64;79.30
18985;BME280;9626;52.552;13.436;2022-09-29T14:30:32;99810.59;;;12.67;79.11
18985;BME280;9626;52.552;13.436;2022-09-29T14:33:12;99811.53;;;12.66;79.18
18985;BME280;9626;52.552;13.436;2022-09-29T14:35:42;99807.09;;;12.67;80.70
18985;BME280;9626;52.552;13.436;2022-09-29T14:38:21;99812.28;;;12.70;80.94
18985;BME280;9626;52.552;13.436;2022-09-29T15:06:05;99822.44;;;12.81;75.27
18985;BME280;9626;52.552;13.436;2022-09-29T15:08:34;99823.34;;;12.80;76.76
18985;BME280;9626;52.552;13.436;2022-09-29T15:11:01;99820.69;;;12.80;74.36
18985;BME280;9626;52.552;13.436;2022-09-29T15:13:29;99820.63;;;12.81;73.55
18985;BME280;9626;52.552;13.436;2022-09-29T15:16:20;99826.09;;;12.78;76.24
18985;BME280;9626;52.552;13.436;2022-09-29T15:21:48;99827.16;;;12.74;72.57
18985;BME280;9626;52.552;13.436;2022-09-29T15:27:24;99834.25;;;12.74;74.59
18985;BME280;9626;52.552;13.436;2022-09-29T15:29:54;99836.84;;;12.75;74.91
18985;BME280;9626;52.552;13.436;2022-09-29T15:32:23;99849.22;;;12.76;74.03
18985;BME280;9626;52.552;13.436;2022-09-29T15:34:50;99851.06;;;12.74;71.48
18985;BME280;9626;52.552;13.436;2022-09-29T15:37:17;99846.72;;;12.72;71.88
18985;BME280;9626;52.552;13.436;2022-09-29T15:39:47;99844.22;;;12.68;72.04
18985;BME280;9626;52.552;13.436;2022-09-29T15:42:16;99856.63;;;12.68;76.23
18985;BME280;9626;52.552;13.436;2022-09-29T15:44:46;99855.47;;;13.16;75.66
18985;BME280;9626;52.552;13.436;2022-09-29T15:47:26;99850.09;;;13.39;72.88
18985;BME280;9626;52.552;13.436;2022-09-29T15:49:53;99856.81;;;13.06;75.72
18985;BME280;9626;52.552;13.436;2022-09-29T15:52:19;99857.72;;;12.84;79.53
18985;BME280;9626;52.552;13.436;2022-09-29T15:54:53;99852.66;;;12.78;81.68
18985;BME280;9626;52.552;13.436;2022-09-29T16:05:32;99862.69;;;12.49;86.17
18985;BME280;9626;52.552;13.436;2022-09-29T16:08:06;99865.59;;;12.43;87.46
18985;BME280;9626;52.552;13.436;2022-09-29T16:10:53;99864.03;;;12.38;88.51
18985;BME280;9626;52.552;13.436;2022-09-29T16:13:25;99869.56;;;12.33;89.28
18985;BME280;9626;52.552;13.436;2022-09-29T16:15:56;99867.06;;;12.28;90.68
18985;BME280;9626;52.552;13.436;2022-09-29T16:18:36;99861.16;;;12.22;92.56
18985;BME280;9626;52.552;13.436;2022-09-29T16:21:15;99863.91;;;12.18;94.15
18985;BME280;9626;52.552;13.436;2022-09-29T16:31:35;99876.38;;;11.94;98.98
18985;BME280;9626;52.552;13.436;2022-09-29T16:34:07;99879.13;;;11.90;99.53
18985;BME280;9626;52.552;13.436;2022-09-29T16:36:47;99884.69;;;11.83;100.00
18985;BME280;9626;52.552;13.436;2022-09-29T16:39:15;99891.94;;;11.78;100.00
18985;BME280;9626;52.552;13.436;2022-09-29T16:41:42;99885.03;;;11.74;100.00